sensor_id;sensor_type;location;lat;lon;timestamp;P1;durP1;ratioP1;P2;durP2;ratioP2
6529;SDS011;3298;42.688;23.366;2022-10-23T00:00:30;25.27;;;14.60;;
6529;SDS011;3298;42.688;23.366;2022-10-23T00:02:58;27.30;;;15.60;;
6529;SDS011;3298;42.688;23.366;2022-10-23T00:05:26;27.63;;;17.67;;
6529;SDS011;3298;42.688;23.366;2022-10-23T00:07:54;28.67;;;16.70;;
6529;SDS011;3298;42.688;23.366;2022-10-23T00:10:22;27.17;;;17.60;;
6529;SDS011;3298;42.688;23.366;2022-10-23T00:12:50;30.57;;;17.73;;
6529;SDS011;3298;42.688;23.366;2022-10-23T00:15:18;29.57;;;17.17;;
6529;SDS011;3298;42.688;23.366;2022-10-23T00:17:47;30.27;;;16.87;;
6529;SDS011;3298;42.688;23.366;2022-10-23T00:20:15;22.97;;;16.07;;
6529;SDS011;3298;42.688;23.366;2022-10-23T00:22:44;21.30;;;15.30;;
6529;SDS011;3298;42.688;23.366;2022-10-23T00:25:12;25.73;;;17.33;;
6529;SDS011;3298;42.688;23.366;2022-10-23T00:27:40;18.17;;;14.07;;
6529;SDS011;3298;42.688;23.366;2022-10-23T00:30:07;20.60;;;13.00;;
6529;SDS011;3298;42.688;23.366;2022-10-23T00:32:35;21.03;;;13.10;;
6529;SDS011;3298;42.688;23.366;2022-10-23T00:35:02;23.70;;;14.43;;
6529;SDS011;3298;42.688;23.366;2022-10-23T00:37:29;18.00;;;13.33;;
6529;SDS011;3298;42.688;23.366;2022-10-23T00:39:57;21.13;;;13.10;;
6529;SDS011;3298;42.688;23.366;2022-10-23T00:42:24;21.10;;;13.77;;
6529;SDS011;3298;42.688;23.366;2022-10-23T00:45:12;16.03;;;12.23;;
6529;SDS011;3298;42.688;23.366;2022-10-23T00:47:41;24.87;;;17.17;;
6529;SDS011;3298;42.688;23.366;2022-10-23T00:50:08;24.70;;;16.33;;
6529;SDS011;3298;42.688;23.366;2022-10-23T00:52:36;25.73;;;11.90;;
6529;SDS011;3298;42.688;23.366;2022-10-23T00:55:08;22.73;;;11.70;;
6529;SDS011;3298;42.688;23.366;2022-10-23T00:57:36;17.77;;;12.13;;
6529;SDS011;3298;42.688;23.366;2022-10-23T01:00:06;21.80;;;11.87;;
6529;SDS011;3298;42.688;23.366;2022-10-23T01:02:34;34.20;;;19.47;;
6529;SDS011;3298;42.688;23.366;2022-10-23T01:05:01;42.17;;;22.43;;
6529;SDS011;3298;42.688;23.366;2022-10-23T01:07:28;39.33;;;20.33;;
6529;SDS011;3298;42.688;23.366;2022-10-23T01:10:03;28.20;;;18.90;;
6529;SDS011;3298;42.688;23.366;2022-10-23T01:12:39;25.10;;;16.80;;
6529;SDS011;3298;42.688;23.366;2022-10-23T01:15:13;26.20;;;16.00;;
6529;SDS011;3298;42.688;23.366;2022-10-23T01:17:47;24.20;;;15.90;;
6529;SDS011;3298;42.688;23.366;2022-10-23T01:20:20;22.33;;;15.43;;
6529;SDS011;3298;42.688;23.366;2022-10-23T01:23:02;27.63;;;15.10;;
6529;SDS011;3298;42.688;23.366;2022-10-23T01:25:57;21.03;;;14.33;;
6529;SDS011;3298;42.688;23.366;2022-10-23T01:28:38;21.80;;;14.00;;
6529;SDS011;3298;42.688;23.366;2022-10-23T01:31:13;22.53;;;14.13;;
6529;SDS011;3298;42.688;23.366;2022-10-23T01:33:45;20.47;;;14.17;;
6529;SDS011;3298;42.688;23.366;2022-10-23T01:36:17;17.17;;;13.77;;
6529;SDS011;3298;42.688;23.366;2022-10-23T01:38:50;19.30;;;12.57;;
6529;SDS011;3298;42.688;23.366;2022-10-23T01:41:23;24.47;;;13.70;;
6529;SDS011;3298;42.688;23.366;2022-10-23T01:43:57;22.13;;;13.90;;
6529;SDS011;3298;42.688;23.366;2022-10-23T01:46:30;19.20;;;14.00;;
6529;SDS011;3298;42.688;23.366;2022-10-23T01:49:02;21.43;;;14.07;;
6529;SDS011;3298;42.688;23.366;2022-10-23T01:51:31;23.77;;;14.40;;
6529;SDS011;3298;42.688;23.366;2022-10-23T01:54:03;20.50;;;13.90;;
6529;SDS011;3298;42.688;23.366;2022-10-23T01:56:34;22.80;;;14.03;;
6529;SDS011;3298;42.688;23.366;2022-10-23T01:59:04;17.23;;;13.00;;
6529;SDS011;3298;42.688;23.366;2022-10-23T02:01:35;22.73;;;13.70;;
6529;SDS011;3298;42.688;23.366;2022-10-23T02:04:05;19.87;;;14.33;;
6529;SDS011;3298;42.688;23.366;2022-10-23T02:06:34;17.23;;;12.47;;
6529;SDS011;3298;42.688;23.366;2022-10-23T02:09:02;16.53;;;12.97;;
6529;SDS011;3298;42.688;23.366;2022-10-23T02:11:30;19.57;;;13.30;;
6529;SDS011;3298;42.688;23.366;2022-10-23T02:14:03;20.93;;;13.23;;
6529;SDS011;3298;42.688;23.366;2022-10-23T02:16:39;16.63;;;13.03;;
6529;SDS011;3298;42.688;23.366;2022-10-23T02:19:12;19.60;;;11.90;;
6529;SDS011;3298;42.688;23.366;2022-10-23T02:21:48;17.00;;;12.03;;
6529;SDS011;3298;42.688;23.366;2022-10-23T02:24:19;16.13;;;12.37;;
6529;SDS011;3298;42.688;23.366;2022-10-23T02:26:52;23.57;;;12.83;;
6529;SDS011;3298;42.688;23.366;2022-10-23T02:29:25;22.97;;;12.13;;
6529;SDS011;3298;42.688;23.366;2022-10-23T02:31:56;18.67;;;12.37;;
6529;SDS011;3298;42.688;23.366;2022-10-23T02:34:22;16.53;;;11.13;;
6529;SDS011;3298;42.688;23.366;2022-10-23T02:36:49;16.40;;;10.83;;
6529;SDS011;3298;42.688;23.366;2022-10-23T02:39:16;15.60;;;11.70;;
6529;SDS011;3298;42.688;23.366;2022-10-23T02:41:43;15.63;;;11.20;;
6529;SDS011;3298;42.688;23.366;2022-10-23T02:44:17;15.20;;;10.90;;
6529;SDS011;3298;42.688;23.366;2022-10-23T02:46:55;14.77;;;10.57;;
6529;SDS011;3298;42.688;23.366;2022-10-23T02:49:31;12.50;;;10.70;;
6529;SDS011;3298;42.688;23.366;2022-10-23T02:52:05;14.53;;;10.33;;
6529;SDS011;3298;42.688;23.366;2022-10-23T02:54:47;16.93;;;11.73;;
6529;SDS011;3298;42.688;23.366;2022-10-23T02:57:26;20.30;;;11.50;;
6529;SDS011;3298;42.688;23.366;2022-10-23T03:00:00;15.80;;;11.20;;
6529;SDS011;3298;42.688;23.366;2022-10-23T03:02:34;16.07;;;10.87;;
6529;SDS011;3298;42.688;23.366;2022-10-23T03:05:04;18.77;;;10.37;;
6529;SDS011;3298;42.688;23.366;2022-10-23T03:07:34;20.07;;;11.33;;
6529;SDS011;3298;42.688;23.366;2022-10-23T03:10:02;22.33;;;10.57;;
6529;SDS011;3298;42.688;23.366;2022-10-23T03:12:29;13.87;;;10.70;;
6529;SDS011;3298;42.688;23.366;2022-10-23T03:14:55;17.30;;;11.37;;
6529;SDS011;3298;42.688;23.366;2022-10-23T03:17:22;17.97;;;12.03;;
6529;SDS011;3298;42.688;23.366;2022-10-23T03:19:51;14.87;;;11.57;;
6529;SDS011;3298;42.688;23.366;2022-10-23T03:22:18;18.17;;;12.87;;
6529;SDS011;3298;42.688;23.366;2022-10-23T03:24:45;19.10;;;12.30;;
6529;SDS011;3298;42.688;23.366;2022-10-23T03:27:12;12.77;;;11.20;;
6529;SDS011;3298;42.688;23.366;2022-10-23T03:29:38;17.13;;;11.63;;
6529;SDS011;3298;42.688;23.366;2022-10-23T03:32:05;14.03;;;11.33;;
6529;SDS011;3298;42.688;23.366;2022-10-23T03:34:32;15.23;;;11.17;;
6529;SDS011;3298;42.688;23.366;2022-10-23T03:37:01;21.80;;;11.23;;
6529;SDS011;3298;42.688;23.366;2022-10-23T03:39:27;17.87;;;12.17;;
6529;SDS011;3298;42.688;23.366;2022-10-23T03:41:54;18.13;;;9.90;;
6529;SDS011;3298;42.688;23.366;2022-10-23T03:44:21;16.63;;;10.57;;
6529;SDS011;3298;42.688;23.366;2022-10-23T03:46:48;14.53;;;10.10;;
6529;SDS011;3298;42.688;23.366;2022-10-23T03:49:15;10.53;;;9.47;;
6529;SDS011;3298;42.688;23.366;2022-10-23T03:51:41;12.53;;;9.90;;
6529;SDS011;3298;42.688;23.366;2022-10-23T03:54:17;10.80;;;9.67;;
6529;SDS011;3298;42.688;23.366;2022-10-23T03:56:44;13.63;;;9.13;;
6529;SDS011;3298;42.688;23.366;2022-10-23T03:59:11;18.23;;;9.83;;
6529;SDS011;3298;42.688;23.366;2022-10-23T04:01:38;13.70;;;9.67;;
6529;SDS011;3298;42.688;23.366;2022-10-23T04:04:05;17.67;;;9.17;;
6529;SDS011;3298;42.688;23.366;2022-10-23T04:06:31;9.73;;;8.60;;
6529;SDS011;3298;42.688;23.366;2022-10-23T04:08:58;11.93;;;9.23;;
6529;SDS011;3298;42.688;23.366;2022-10-23T04:11:26;12.13;;;8.40;;
6529;SDS011;3298;42.688;23.366;2022-10-23T04:13:53;11.87;;;8.53;;
6529;SDS011;3298;42.688;23.366;2022-10-23T04:16:20;12.40;;;8.40;;
6529;SDS011;3298;42.688;23.366;2022-10-23T04:18:48;10.37;;;7.47;;
6529;SDS011;3298;42.688;23.366;2022-10-23T04:21:15;13.87;;;8.80;;
6529;SDS011;3298;42.688;23.366;2022-10-23T04:23:42;14.93;;;9.13;;
6529;SDS011;3298;42.688;23.366;2022-10-23T04:26:08;12.07;;;9.70;;
6529;SDS011;3298;42.688;23.366;2022-10-23T04:28:37;16.40;;;9.93;;
6529;SDS011;3298;42.688;23.366;2022-10-23T04:31:04;11.67;;;9.47;;
6529;SDS011;3298;42.688;23.366;2022-10-23T04:33:31;14.40;;;9.40;;
6529;SDS011;3298;42.688;23.366;2022-10-23T04:35:57;12.13;;;9.10;;
6529;SDS011;3298;42.688;23.366;2022-10-23T04:38:24;14.00;;;9.30;;
6529;SDS011;3298;42.688;23.366;2022-10-23T04:40:51;10.20;;;7.77;;
6529;SDS011;3298;42.688;23.366;2022-10-23T04:43:18;11.17;;;9.37;;
6529;SDS011;3298;42.688;23.366;2022-10-23T04:45:46;21.43;;;10.23;;
6529;SDS011;3298;42.688;23.366;2022-10-23T04:48:14;10.50;;;8.17;;
6529;SDS011;3298;42.688;23.366;2022-10-23T04:50:40;12.97;;;10.47;;
6529;SDS011;3298;42.688;23.366;2022-10-23T04:53:07;12.27;;;8.83;;
6529;SDS011;3298;42.688;23.366;2022-10-23T04:55:35;12.77;;;9.47;;
6529;SDS011;3298;42.688;23.366;2022-10-23T04:58:01;16.03;;;9.17;;
6529;SDS011;3298;42.688;23.366;2022-10-23T05:00:28;11.80;;;8.47;;
6529;SDS011;3298;42.688;23.366;2022-10-23T05:02:56;15.10;;;8.67;;
6529;SDS011;3298;42.688;23.366;2022-10-23T05:05:23;14.53;;;9.50;;
6529;SDS011;3298;42.688;23.366;2022-10-23T05:07:50;10.67;;;8.67;;
6529;SDS011;3298;42.688;23.366;2022-10-23T05:10:17;11.63;;;8.90;;
6529;SDS011;3298;42.688;23.366;2022-10-23T05:12:43;17.03;;;9.30;;
6529;SDS011;3298;42.688;23.366;2022-10-23T05:15:10;9.27;;;8.00;;
6529;SDS011;3298;42.688;23.366;2022-10-23T05:17:37;12.27;;;7.87;;
6529;SDS011;3298;42.688;23.366;2022-10-23T05:20:12;11.20;;;7.73;;
6529;SDS011;3298;42.688;23.366;2022-10-23T05:22:42;12.97;;;7.33;;
6529;SDS011;3298;42.688;23.366;2022-10-23T05:25:11;11.50;;;8.13;;
6529;SDS011;3298;42.688;23.366;2022-10-23T05:27:38;9.80;;;7.43;;
6529;SDS011;3298;42.688;23.366;2022-10-23T05:30:05;10.07;;;7.47;;
6529;SDS011;3298;42.688;23.366;2022-10-23T05:32:33;7.87;;;7.10;;
6529;SDS011;3298;42.688;23.366;2022-10-23T05:35:02;12.07;;;6.77;;
6529;SDS011;3298;42.688;23.366;2022-10-23T05:37:34;12.67;;;7.90;;
6529;SDS011;3298;42.688;23.366;2022-10-23T05:40:03;12.73;;;8.03;;
6529;SDS011;3298;42.688;23.366;2022-10-23T05:42:31;15.33;;;10.47;;
6529;SDS011;3298;42.688;23.366;2022-10-23T05:44:57;21.53;;;10.73;;
6529;SDS011;3298;42.688;23.366;2022-10-23T05:47:24;19.70;;;11.10;;
6529;SDS011;3298;42.688;23.366;2022-10-23T05:49:51;15.87;;;10.63;;
6529;SDS011;3298;42.688;23.366;2022-10-23T05:52:17;14.13;;;10.53;;
6529;SDS011;3298;42.688;23.366;2022-10-23T05:54:46;19.07;;;11.47;;
6529;SDS011;3298;42.688;23.366;2022-10-23T05:57:12;19.13;;;11.63;;
6529;SDS011;3298;42.688;23.366;2022-10-23T05:59:39;14.30;;;10.80;;
6529;SDS011;3298;42.688;23.366;2022-10-23T06:02:06;13.00;;;10.27;;
6529;SDS011;3298;42.688;23.366;2022-10-23T06:04:33;13.87;;;6.33;;
6529;SDS011;3298;42.688;23.366;2022-10-23T06:07:00;8.07;;;7.27;;
6529;SDS011;3298;42.688;23.366;2022-10-23T06:09:26;9.80;;;8.00;;
6529;SDS011;3298;42.688;23.366;2022-10-23T06:11:55;8.17;;;7.30;;
6529;SDS011;3298;42.688;23.366;2022-10-23T06:14:21;13.40;;;7.20;;
6529;SDS011;3298;42.688;23.366;2022-10-23T06:16:48;11.13;;;7.50;;
6529;SDS011;3298;42.688;23.366;2022-10-23T06:19:15;12.13;;;7.80;;
6529;SDS011;3298;42.688;23.366;2022-10-23T06:21:42;7.20;;;6.43;;
6529;SDS011;3298;42.688;23.366;2022-10-23T06:24:08;10.13;;;7.07;;
6529;SDS011;3298;42.688;23.366;2022-10-23T06:26:36;12.40;;;7.50;;
6529;SDS011;3298;42.688;23.366;2022-10-23T06:29:04;8.20;;;7.33;;
6529;SDS011;3298;42.688;23.366;2022-10-23T06:31:31;10.40;;;6.60;;
6529;SDS011;3298;42.688;23.366;2022-10-23T06:33:58;12.30;;;7.30;;
6529;SDS011;3298;42.688;23.366;2022-10-23T06:36:25;13.60;;;6.90;;
6529;SDS011;3298;42.688;23.366;2022-10-23T06:38:52;6.37;;;5.77;;
6529;SDS011;3298;42.688;23.366;2022-10-23T06:41:20;9.93;;;6.07;;
6529;SDS011;3298;42.688;23.366;2022-10-23T06:43:48;7.00;;;5.23;;
6529;SDS011;3298;42.688;23.366;2022-10-23T06:46:17;8.17;;;5.33;;
6529;SDS011;3298;42.688;23.366;2022-10-23T06:48:44;6.63;;;4.43;;
6529;SDS011;3298;42.688;23.366;2022-10-23T06:51:12;6.37;;;4.60;;
6529;SDS011;3298;42.688;23.366;2022-10-23T06:53:40;6.03;;;4.07;;
6529;SDS011;3298;42.688;23.366;2022-10-23T06:56:08;6.03;;;4.13;;
6529;SDS011;3298;42.688;23.366;2022-10-23T06:58:36;3.80;;;3.50;;
6529;SDS011;3298;42.688;23.366;2022-10-23T07:01:05;5.00;;;4.00;;
6529;SDS011;3298;42.688;23.366;2022-10-23T07:03:34;4.23;;;3.80;;
6529;SDS011;3298;42.688;23.366;2022-10-23T07:06:01;4.30;;;3.83;;
6529;SDS011;3298;42.688;23.366;2022-10-23T07:08:28;8.27;;;4.27;;
6529;SDS011;3298;42.688;23.366;2022-10-23T07:10:55;4.03;;;3.50;;
6529;SDS011;3298;42.688;23.366;2022-10-23T07:13:22;5.77;;;4.63;;
6529;SDS011;3298;42.688;23.366;2022-10-23T07:15:49;6.10;;;3.70;;
6529;SDS011;3298;42.688;23.366;2022-10-23T07:18:16;3.83;;;3.53;;
6529;SDS011;3298;42.688;23.366;2022-10-23T07:20:45;4.47;;;4.07;;
6529;SDS011;3298;42.688;23.366;2022-10-23T07:23:13;4.77;;;4.23;;
6529;SDS011;3298;42.688;23.366;2022-10-23T07:25:41;4.20;;;3.90;;
6529;SDS011;3298;42.688;23.366;2022-10-23T07:28:08;4.40;;;4.00;;
6529;SDS011;3298;42.688;23.366;2022-10-23T07:30:35;4.70;;;4.30;;
6529;SDS011;3298;42.688;23.366;2022-10-23T07:33:02;5.67;;;4.17;;
6529;SDS011;3298;42.688;23.366;2022-10-23T07:35:28;4.97;;;4.27;;
6529;SDS011;3298;42.688;23.366;2022-10-23T07:37:59;4.83;;;3.93;;
6529;SDS011;3298;42.688;23.366;2022-10-23T07:40:25;6.73;;;4.47;;
6529;SDS011;3298;42.688;23.366;2022-10-23T07:42:52;4.27;;;3.60;;
6529;SDS011;3298;42.688;23.366;2022-10-23T07:45:19;4.20;;;3.77;;
6529;SDS011;3298;42.688;23.366;2022-10-23T07:47:49;3.70;;;3.50;;
6529;SDS011;3298;42.688;23.366;2022-10-23T07:50:16;5.27;;;4.00;;
6529;SDS011;3298;42.688;23.366;2022-10-23T07:52:43;5.33;;;3.60;;
6529;SDS011;3298;42.688;23.366;2022-10-23T07:55:11;5.53;;;3.90;;
6529;SDS011;3298;42.688;23.366;2022-10-23T07:57:39;4.53;;;3.43;;
6529;SDS011;3298;42.688;23.366;2022-10-23T08:00:06;4.17;;;3.23;;
6529;SDS011;3298;42.688;23.366;2022-10-23T08:02:33;8.20;;;3.47;;
6529;SDS011;3298;42.688;23.366;2022-10-23T08:05:00;5.77;;;3.40;;
6529;SDS011;3298;42.688;23.366;2022-10-23T08:07:27;5.73;;;3.13;;
6529;SDS011;3298;42.688;23.366;2022-10-23T08:09:53;3.47;;;3.17;;
6529;SDS011;3298;42.688;23.366;2022-10-23T08:12:22;3.67;;;2.93;;
6529;SDS011;3298;42.688;23.366;2022-10-23T08:14:48;6.00;;;3.13;;
6529;SDS011;3298;42.688;23.366;2022-10-23T08:17:15;3.40;;;3.20;;
6529;SDS011;3298;42.688;23.366;2022-10-23T08:19:42;3.47;;;3.17;;
6529;SDS011;3298;42.688;23.366;2022-10-23T08:22:11;3.10;;;2.90;;
6529;SDS011;3298;42.688;23.366;2022-10-23T08:24:38;7.03;;;3.23;;
6529;SDS011;3298;42.688;23.366;2022-10-23T08:27:05;5.97;;;3.50;;
6529;SDS011;3298;42.688;23.366;2022-10-23T08:29:33;3.07;;;2.87;;
6529;SDS011;3298;42.688;23.366;2022-10-23T08:32:00;3.07;;;2.63;;
6529;SDS011;3298;42.688;23.366;2022-10-23T08:34:26;3.67;;;2.70;;
6529;SDS011;3298;42.688;23.366;2022-10-23T08:36:53;3.37;;;3.07;;
6529;SDS011;3298;42.688;23.366;2022-10-23T08:39:20;3.23;;;3.00;;
6529;SDS011;3298;42.688;23.366;2022-10-23T08:41:47;3.50;;;3.20;;
6529;SDS011;3298;42.688;23.366;2022-10-23T08:44:18;4.63;;;3.63;;
6529;SDS011;3298;42.688;23.366;2022-10-23T08:46:52;7.80;;;3.90;;
6529;SDS011;3298;42.688;23.366;2022-10-23T08:49:38;3.50;;;3.20;;
6529;SDS011;3298;42.688;23.366;2022-10-23T08:52:12;3.73;;;3.13;;
6529;SDS011;3298;42.688;23.366;2022-10-23T08:54:45;5.17;;;3.33;;
6529;SDS011;3298;42.688;23.366;2022-10-23T08:57:31;3.40;;;3.10;;
6529;SDS011;3298;42.688;23.366;2022-10-23T09:00:03;2.67;;;2.57;;
6529;SDS011;3298;42.688;23.366;2022-10-23T09:02:35;3.13;;;2.93;;
6529;SDS011;3298;42.688;23.366;2022-10-23T09:05:10;3.30;;;3.10;;
6529;SDS011;3298;42.688;23.366;2022-10-23T09:07:42;2.83;;;2.63;;
6529;SDS011;3298;42.688;23.366;2022-10-23T09:10:27;3.77;;;3.17;;
6529;SDS011;3298;42.688;23.366;2022-10-23T09:13:19;3.60;;;3.13;;
6529;SDS011;3298;42.688;23.366;2022-10-23T09:15:58;4.97;;;2.60;;
6529;SDS011;3298;42.688;23.366;2022-10-23T09:18:32;3.30;;;3.10;;
6529;SDS011;3298;42.688;23.366;2022-10-23T09:20:59;3.80;;;3.33;;
6529;SDS011;3298;42.688;23.366;2022-10-23T09:23:26;2.57;;;2.37;;
6529;SDS011;3298;42.688;23.366;2022-10-23T09:25:53;2.90;;;2.70;;
6529;SDS011;3298;42.688;23.366;2022-10-23T09:28:22;1.87;;;1.77;;
6529;SDS011;3298;42.688;23.366;2022-10-23T09:30:50;2.63;;;2.43;;
6529;SDS011;3298;42.688;23.366;2022-10-23T09:33:18;3.03;;;2.37;;
6529;SDS011;3298;42.688;23.366;2022-10-23T09:35:52;5.17;;;2.20;;
6529;SDS011;3298;42.688;23.366;2022-10-23T09:38:24;2.13;;;2.03;;
6529;SDS011;3298;42.688;23.366;2022-10-23T09:40:53;2.53;;;2.40;;
6529;SDS011;3298;42.688;23.366;2022-10-23T09:43:20;2.77;;;2.47;;
6529;SDS011;3298;42.688;23.366;2022-10-23T09:45:55;3.03;;;2.73;;
6529;SDS011;3298;42.688;23.366;2022-10-23T09:48:23;2.37;;;2.27;;
6529;SDS011;3298;42.688;23.366;2022-10-23T09:50:52;2.40;;;2.20;;
6529;SDS011;3298;42.688;23.366;2022-10-23T09:53:30;2.53;;;2.37;;
6529;SDS011;3298;42.688;23.366;2022-10-23T09:56:00;2.30;;;2.10;;
6529;SDS011;3298;42.688;23.366;2022-10-23T09:58:30;2.07;;;1.97;;
6529;SDS011;3298;42.688;23.366;2022-10-23T10:00:59;2.80;;;1.77;;
6529;SDS011;3298;42.688;23.366;2022-10-23T10:03:26;3.07;;;1.80;;
6529;SDS011;3298;42.688;23.366;2022-10-23T10:05:56;2.47;;;2.30;;
6529;SDS011;3298;42.688;23.366;2022-10-23T10:08:27;1.87;;;1.77;;
6529;SDS011;3298;42.688;23.366;2022-10-23T10:11:00;2.13;;;2.00;;
6529;SDS011;3298;42.688;23.366;2022-10-23T10:13:34;2.57;;;1.73;;
6529;SDS011;3298;42.688;23.366;2022-10-23T10:16:18;2.10;;;1.90;;
6529;SDS011;3298;42.688;23.366;2022-10-23T10:18:53;2.20;;;2.00;;
6529;SDS011;3298;42.688;23.366;2022-10-23T10:21:29;1.87;;;1.77;;
6529;SDS011;3298;42.688;23.366;2022-10-23T10:24:01;1.73;;;1.53;;
6529;SDS011;3298;42.688;23.366;2022-10-23T10:26:34;1.60;;;1.50;;
6529;SDS011;3298;42.688;23.366;2022-10-23T10:29:14;1.67;;;1.57;;
6529;SDS011;3298;42.688;23.366;2022-10-23T10:31:53;1.67;;;1.57;;
6529;SDS011;3298;42.688;23.366;2022-10-23T10:34:32;1.83;;;1.73;;
6529;SDS011;3298;42.688;23.366;2022-10-23T10:37:11;1.93;;;1.83;;
6529;SDS011;3298;42.688;23.366;2022-10-23T10:39:46;1.50;;;1.40;;
6529;SDS011;3298;42.688;23.366;2022-10-23T10:42:25;1.50;;;1.40;;
6529;SDS011;3298;42.688;23.366;2022-10-23T10:45:05;2.00;;;1.50;;
6529;SDS011;3298;42.688;23.366;2022-10-23T10:47:43;2.40;;;1.83;;
6529;SDS011;3298;42.688;23.366;2022-10-23T10:50:21;3.90;;;1.90;;
6529;SDS011;3298;42.688;23.366;2022-10-23T10:52:54;1.57;;;1.47;;
6529;SDS011;3298;42.688;23.366;2022-10-23T10:55:34;1.73;;;1.60;;
6529;SDS011;3298;42.688;23.366;2022-10-23T10:58:04;3.83;;;1.90;;
6529;SDS011;3298;42.688;23.366;2022-10-23T11:00:38;1.50;;;1.50;;
6529;SDS011;3298;42.688;23.366;2022-10-23T11:03:09;1.77;;;1.67;;
6529;SDS011;3298;42.688;23.366;2022-10-23T11:05:47;1.70;;;1.60;;
6529;SDS011;3298;42.688;23.366;2022-10-23T11:08:18;3.13;;;2.30;;
6529;SDS011;3298;42.688;23.366;2022-10-23T11:10:53;1.40;;;1.30;;
6529;SDS011;3298;42.688;23.366;2022-10-23T11:13:24;1.43;;;1.33;;
6529;SDS011;3298;42.688;23.366;2022-10-23T11:15:53;1.63;;;1.53;;
6529;SDS011;3298;42.688;23.366;2022-10-23T11:18:25;2.90;;;1.60;;
6529;SDS011;3298;42.688;23.366;2022-10-23T11:20:57;4.00;;;1.63;;
6529;SDS011;3298;42.688;23.366;2022-10-23T11:23:46;2.60;;;1.40;;
6529;SDS011;3298;42.688;23.366;2022-10-23T11:26:28;4.40;;;1.33;;
6529;SDS011;3298;42.688;23.366;2022-10-23T11:29:13;1.60;;;1.50;;
6529;SDS011;3298;42.688;23.366;2022-10-23T11:31:54;2.30;;;1.30;;
6529;SDS011;3298;42.688;23.366;2022-10-23T11:34:34;1.40;;;1.40;;
6529;SDS011;3298;42.688;23.366;2022-10-23T11:37:08;1.47;;;1.37;;
6529;SDS011;3298;42.688;23.366;2022-10-23T11:39:38;1.50;;;1.50;;
6529;SDS011;3298;42.688;23.366;2022-10-23T11:42:12;1.70;;;1.60;;
6529;SDS011;3298;42.688;23.366;2022-10-23T11:44:41;1.30;;;1.20;;
6529;SDS011;3298;42.688;23.366;2022-10-23T11:50:23;1.53;;;1.43;;
6529;SDS011;3298;42.688;23.366;2022-10-23T11:55:57;2.10;;;2.00;;
6529;SDS011;3298;42.688;23.366;2022-10-23T11:58:27;1.97;;;1.87;;
6529;SDS011;3298;42.688;23.366;2022-10-23T12:01:14;1.23;;;1.10;;
6529;SDS011;3298;42.688;23.366;2022-10-23T12:03:49;2.77;;;1.57;;
6529;SDS011;3298;42.688;23.366;2022-10-23T12:06:20;2.40;;;1.23;;
6529;SDS011;3298;42.688;23.366;2022-10-23T12:08:51;3.73;;;1.53;;
6529;SDS011;3298;42.688;23.366;2022-10-23T12:11:26;2.53;;;1.37;;
6529;SDS011;3298;42.688;23.366;2022-10-23T12:13:54;1.83;;;1.73;;
6529;SDS011;3298;42.688;23.366;2022-10-23T12:16:21;1.43;;;1.37;;
6529;SDS011;3298;42.688;23.366;2022-10-23T12:18:59;1.20;;;1.20;;
6529;SDS011;3298;42.688;23.366;2022-10-23T12:21:43;1.20;;;1.10;;
6529;SDS011;3298;42.688;23.366;2022-10-23T12:24:13;1.93;;;1.57;;
6529;SDS011;3298;42.688;23.366;2022-10-23T12:27:11;1.30;;;1.20;;
6529;SDS011;3298;42.688;23.366;2022-10-23T12:29:50;2.13;;;1.93;;
6529;SDS011;3298;42.688;23.366;2022-10-23T12:35:42;1.40;;;1.30;;
6529;SDS011;3298;42.688;23.366;2022-10-23T12:38:19;1.47;;;1.47;;
6529;SDS011;3298;42.688;23.366;2022-10-23T12:40:50;1.83;;;1.30;;
6529;SDS011;3298;42.688;23.366;2022-10-23T12:43:22;1.30;;;1.20;;
6529;SDS011;3298;42.688;23.366;2022-10-23T12:45:53;1.87;;;1.50;;
6529;SDS011;3298;42.688;23.366;2022-10-23T12:48:22;1.60;;;1.50;;
6529;SDS011;3298;42.688;23.366;2022-10-23T12:50:50;5.40;;;1.10;;
6529;SDS011;3298;42.688;23.366;2022-10-23T12:53:19;0.97;;;0.97;;
6529;SDS011;3298;42.688;23.366;2022-10-23T12:55:48;1.20;;;1.20;;
6529;SDS011;3298;42.688;23.366;2022-10-23T12:58:20;1.03;;;0.97;;
6529;SDS011;3298;42.688;23.366;2022-10-23T13:00:49;1.30;;;1.20;;
6529;SDS011;3298;42.688;23.366;2022-10-23T13:03:18;0.80;;;0.80;;
6529;SDS011;3298;42.688;23.366;2022-10-23T13:05:46;4.50;;;0.80;;
6529;SDS011;3298;42.688;23.366;2022-10-23T13:08:15;0.60;;;0.60;;
6529;SDS011;3298;42.688;23.366;2022-10-23T13:10:43;0.80;;;0.80;;
6529;SDS011;3298;42.688;23.366;2022-10-23T13:13:10;0.90;;;0.90;;
6529;SDS011;3298;42.688;23.366;2022-10-23T13:15:40;0.97;;;0.90;;
6529;SDS011;3298;42.688;23.366;2022-10-23T13:18:08;4.47;;;2.53;;
6529;SDS011;3298;42.688;23.366;2022-10-23T13:20:39;1.63;;;1.40;;
6529;SDS011;3298;42.688;23.366;2022-10-23T13:23:09;1.57;;;1.47;;
6529;SDS011;3298;42.688;23.366;2022-10-23T13:25:40;2.67;;;1.60;;
6529;SDS011;3298;42.688;23.366;2022-10-23T13:28:21;1.40;;;1.40;;
6529;SDS011;3298;42.688;23.366;2022-10-23T13:31:01;1.47;;;1.10;;
6529;SDS011;3298;42.688;23.366;2022-10-23T13:33:30;1.50;;;1.40;;
6529;SDS011;3298;42.688;23.366;2022-10-23T13:36:00;1.10;;;1.10;;
6529;SDS011;3298;42.688;23.366;2022-10-23T13:38:28;1.17;;;1.17;;
6529;SDS011;3298;42.688;23.366;2022-10-23T13:40:57;3.43;;;1.53;;
6529;SDS011;3298;42.688;23.366;2022-10-23T13:43:25;2.47;;;2.37;;
6529;SDS011;3298;42.688;23.366;2022-10-23T13:45:55;3.23;;;2.93;;
6529;SDS011;3298;42.688;23.366;2022-10-23T13:48:23;3.40;;;3.10;;
6529;SDS011;3298;42.688;23.366;2022-10-23T13:50:50;3.07;;;2.87;;
6529;SDS011;3298;42.688;23.366;2022-10-23T13:53:17;2.40;;;2.10;;
6529;SDS011;3298;42.688;23.366;2022-10-23T13:55:45;3.83;;;2.80;;
6529;SDS011;3298;42.688;23.366;2022-10-23T13:58:15;5.20;;;2.87;;
6529;SDS011;3298;42.688;23.366;2022-10-23T14:00:42;3.30;;;3.10;;
6529;SDS011;3298;42.688;23.366;2022-10-23T14:03:11;3.83;;;3.53;;
6529;SDS011;3298;42.688;23.366;2022-10-23T14:05:39;2.30;;;2.10;;
6529;SDS011;3298;42.688;23.366;2022-10-23T14:08:06;1.83;;;1.73;;
6529;SDS011;3298;42.688;23.366;2022-10-23T14:10:32;2.17;;;2.00;;
6529;SDS011;3298;42.688;23.366;2022-10-23T14:12:59;1.70;;;1.60;;
6529;SDS011;3298;42.688;23.366;2022-10-23T14:15:26;1.23;;;1.13;;
6529;SDS011;3298;42.688;23.366;2022-10-23T14:17:53;1.93;;;1.83;;
6529;SDS011;3298;42.688;23.366;2022-10-23T14:20:19;1.70;;;1.60;;
6529;SDS011;3298;42.688;23.366;2022-10-23T14:22:48;1.87;;;1.77;;
6529;SDS011;3298;42.688;23.366;2022-10-23T14:25:14;1.60;;;1.50;;
6529;SDS011;3298;42.688;23.366;2022-10-23T14:27:41;1.90;;;1.80;;
6529;SDS011;3298;42.688;23.366;2022-10-23T14:30:09;1.30;;;1.30;;
6529;SDS011;3298;42.688;23.366;2022-10-23T14:32:36;1.63;;;1.50;;
6529;SDS011;3298;42.688;23.366;2022-10-23T14:35:03;4.77;;;1.67;;
6529;SDS011;3298;42.688;23.366;2022-10-23T14:37:31;1.60;;;1.50;;
6529;SDS011;3298;42.688;23.366;2022-10-23T14:39:59;1.70;;;1.60;;
6529;SDS011;3298;42.688;23.366;2022-10-23T14:42:26;1.93;;;1.80;;
6529;SDS011;3298;42.688;23.366;2022-10-23T14:44:58;1.80;;;1.70;;
6529;SDS011;3298;42.688;23.366;2022-10-23T14:47:25;2.93;;;1.60;;
6529;SDS011;3298;42.688;23.366;2022-10-23T14:49:51;3.53;;;1.97;;
6529;SDS011;3298;42.688;23.366;2022-10-23T14:52:18;2.90;;;1.87;;
6529;SDS011;3298;42.688;23.366;2022-10-23T14:54:45;3.63;;;2.07;;
6529;SDS011;3298;42.688;23.366;2022-10-23T14:57:13;2.87;;;2.07;;
6529;SDS011;3298;42.688;23.366;2022-10-23T14:59:42;2.93;;;1.77;;
6529;SDS011;3298;42.688;23.366;2022-10-23T15:02:09;3.00;;;2.00;;
6529;SDS011;3298;42.688;23.366;2022-10-23T15:04:36;2.37;;;2.10;;
6529;SDS011;3298;42.688;23.366;2022-10-23T15:07:03;2.90;;;2.60;;
6529;SDS011;3298;42.688;23.366;2022-10-23T15:09:30;4.37;;;2.93;;
6529;SDS011;3298;42.688;23.366;2022-10-23T15:11:59;6.70;;;5.93;;
6529;SDS011;3298;42.688;23.366;2022-10-23T15:14:27;11.87;;;6.33;;
6529;SDS011;3298;42.688;23.366;2022-10-23T15:16:54;9.60;;;7.73;;
6529;SDS011;3298;42.688;23.366;2022-10-23T15:19:21;9.60;;;8.13;;